Time;durP1;ratioP1;P1;durP2;ratioP2;P2;SDS_P1;SDS_P2;PMS_P1;PMS_P2;Temp;Humidity;BMP_temperature;BMP_pressure;BME280_temperature;BME280_humidity;BME280_pressure;Samples;Min_cycle;Max_cycle;Signal;HPM_P1;HPM_P2
2024/02/23 00:00:18;;;;;;;0.30;0.30;;;;;;;10.30;100.00;94297.03;5036150;28;20225;-67
2024/02/23 00:02:44;;;;;;;0.30;0.30;;;;;;;10.24;100.00;94292.63;5035077;28;20275;-64
2024/02/23 00:05:12;;;;;;;0.23;0.23;;;;;;;10.17;100.00;94302.44;5036250;28;20620;-67
2024/02/23 00:07:38;;;;;;;0.83;0.20;;;;;;;10.14;100.00;94316.03;5034870;28;20200;-66
2024/02/23 00:10:06;;;;;;;0.33;0.27;;;;;;;10.08;100.00;94327.44;5035635;28;20201;-67
2024/02/23 00:12:33;;;;;;;0.30;0.30;;;;;;;9.97;100.00;94327.38;5034971;28;20229;-66
2024/02/23 00:14:59;;;;;;;0.30;0.30;;;;;;;10.15;100.00;94341.31;5035486;28;20205;-67
2024/02/23 00:17:26;;;;;;;0.30;0.30;;;;;;;9.93;100.00;94337.50;5035398;28;20573;-68
2024/02/23 00:19:52;;;;;;;0.30;0.30;;;;;;;9.59;100.00;94336.44;5035726;28;20610;-64
2024/02/23 00:22:20;;;;;;;0.40;0.40;;;;;;;9.67;100.00;94338.78;5035367;28;20224;-66
2024/02/23 00:24:47;;;;;;;0.37;0.30;;;;;;;9.59;100.00;94333.81;5035268;28;20201;-66
2024/02/23 00:27:13;;;;;;;0.30;0.30;;;;;;;9.43;100.00;94334.34;5035659;28;20208;-65
2024/02/23 00:29:40;;;;;;;0.20;0.20;;;;;;;9.52;100.00;94346.19;5035487;28;20225;-68
2024/02/23 00:32:07;;;;;;;0.57;0.57;;;;;;;9.30;100.00;94347.59;5034416;28;20235;-68
2024/02/23 00:34:33;;;;;;;0.30;0.30;;;;;;;9.18;100.00;94346.69;5035599;28;20680;-68
2024/02/23 00:37:00;;;;;;;0.30;0.30;;;;;;;9.21;100.00;94354.16;5034809;28;20587;-69
2024/02/23 00:39:27;;;;;;;0.30;0.30;;;;;;;9.08;100.00;94346.38;5034664;28;20575;-68
2024/02/23 00:41:54;;;;;;;0.30;0.30;;;;;;;8.97;100.00;94333.13;5034093;28;20221;-67
2024/02/23 00:44:20;;;;;;;0.20;0.20;;;;;;;9.04;100.00;94350.44;5035734;28;20205;-65
2024/02/23 00:46:47;;;;;;;0.27;0.27;;;;;;;8.95;100.00;94362.22;5034291;28;20201;-66
2024/02/23 00:49:13;;;;;;;0.50;0.50;;;;;;;8.76;100.00;94350.03;5035068;28;20209;-67
2024/02/23 00:51:40;;;;;;;2.67;0.47;;;;;;;9.02;100.00;94352.47;5034865;28;20249;-68
2024/02/23 00:54:07;;;;;;;0.70;0.40;;;;;;;8.90;100.00;94348.91;5034413;28;20333;-71
2024/02/23 00:56:35;;;;;;;0.30;0.30;;;;;;;9.06;100.00;94369.41;5034812;28;20205;-68
2024/02/23 00:59:02;;;;;;;0.20;0.20;;;;;;;8.98;100.00;94379.38;5035035;28;20197;-70
2024/02/23 01:01:29;;;;;;;0.60;0.60;;;;;;;9.00;100.00;94428.06;5033825;28;20221;-67
2024/02/23 01:03:55;;;;;;;0.30;0.30;;;;;;;8.97;100.00;94417.97;5035049;28;20593;-67
2024/02/23 01:06:22;;;;;;;0.30;0.30;;;;;;;7.60;100.00;94430.88;5034611;28;20197;-69
2024/02/23 01:08:48;;;;;;;0.30;0.30;;;;;;;7.46;100.00;94443.19;5035674;28;20205;-67
2024/02/23 01:11:15;;;;;;;0.30;0.30;;;;;;;6.82;100.00;94450.94;5034441;28;20479;-69
2024/02/23 01:13:43;;;;;;;0.20;0.20;;;;;;;6.73;100.00;94446.88;5034423;28;20205;-66
2024/02/23 01:16:09;;;;;;;2.00;0.63;;;;;;;6.48;100.00;94460.69;5035235;28;20395;-71
2024/02/23 01:18:36;;;;;;;0.30;0.30;;;;;;;6.52;100.00;94454.06;5034008;28;20201;-71
2024/02/23 01:21:02;;;;;;;0.20;0.20;;;;;;;6.51;100.00;94462.91;5034856;28;20221;-70
2024/02/23 01:23:29;;;;;;;0.20;0.20;;;;;;;6.56;100.00;94476.22;5033999;28;20232;-72
2024/02/23 01:25:55;;;;;;;0.30;0.30;;;;;;;6.47;100.00;94464.31;5034892;28;20208;-68
2024/02/23 01:28:22;;;;;;;0.20;0.20;;;;;;;6.65;100.00;94480.28;5034322;28;20201;-67
2024/02/23 01:30:50;;;;;;;0.30;0.30;;;;;;;6.65;100.00;94482.91;5035202;28;20197;-71
2024/02/23 01:33:16;;;;;;;0.30;0.30;;;;;;;6.52;100.00;94480.22;5033706;28;20304;-71
2024/02/23 01:35:43;;;;;;;0.30;0.30;;;;;;;6.43;100.00;94476.97;5035116;28;20205;-70
2024/02/23 01:38:09;;;;;;;0.80;0.33;;;;;;;6.63;100.00;94477.84;5034379;28;20206;-69
2024/02/23 01:40:36;;;;;;;0.50;0.43;;;;;;;6.64;100.00;94474.22;5034606;28;20243;-68
2024/02/23 01:43:04;;;;;;;1.27;0.30;;;;;;;6.73;100.00;94480.91;5033658;28;20239;-67
2024/02/23 01:45:30;;;;;;;0.60;0.30;;;;;;;6.52;100.00;94475.81;5034290;28;20578;-70
2024/02/23 01:47:59;;;;;;;0.20;0.20;;;;;;;6.70;100.00;94473.47;5034834;28;21017;-70
2024/02/23 01:50:26;;;;;;;0.20;0.20;;;;;;;6.65;100.00;94475.06;5034410;28;20209;-67
2024/02/23 01:52:53;;;;;;;0.20;0.20;;;;;;;6.60;100.00;94473.00;5033246;28;20225;-66
2024/02/23 01:55:21;;;;;;;0.30;0.30;;;;;;;6.69;100.00;94479.69;5034930;28;20191;-69
2024/02/23 01:57:48;;;;;;;0.50;0.50;;;;;;;6.63;100.00;94477.06;5034678;28;20314;-69
2024/02/23 02:00:17;;;;;;;0.40;0.40;;;;;;;6.88;100.00;94487.59;5034366;28;20600;-69
2024/02/23 02:02:44;;;;;;;0.37;0.37;;;;;;;6.60;100.00;94496.56;5037145;28;20225;-67
2024/02/23 02:05:12;;;;;;;0.20;0.20;;;;;;;6.60;100.00;94488.72;5038481;28;20209;-67
2024/02/23 02:07:40;;;;;;;0.27;0.27;;;;;;;6.37;100.00;94496.03;5037397;28;20201;-69
2024/02/23 02:10:09;;;;;;;0.30;0.30;;;;;;;6.73;100.00;94486.13;5038228;28;20212;-71
2024/02/23 02:12:36;;;;;;;0.47;0.47;;;;;;;6.52;100.00;94501.13;5037160;28;20399;-72
2024/02/23 02:15:03;;;;;;;0.40;0.40;;;;;;;6.53;100.00;94497.53;5037699;28;20215;-67
2024/02/23 02:17:29;;;;;;;0.30;0.30;;;;;;;6.49;100.00;94488.47;5037344;28;20209;-67
2024/02/23 02:19:56;;;;;;;0.60;0.47;;;;;;;6.54;100.00;94505.19;5037277;28;20683;-67
2024/02/23 02:22:24;;;;;;;0.40;0.40;;;;;;;6.69;100.00;94508.47;5037368;28;20225;-66
2024/02/23 02:24:50;;;;;;;1.40;1.23;;;;;;;6.46;100.00;94499.31;5038574;28;20201;-66
2024/02/23 02:27:17;;;;;;;0.30;0.30;;;;;;;6.27;100.00;94503.44;5037944;28;20204;-68
2024/02/23 02:29:43;;;;;;;0.50;0.50;;;;;;;6.59;100.00;94499.38;5036676;28;20202;-68
2024/02/23 02:32:10;;;;;;;0.40;0.40;;;;;;;6.64;100.00;94476.84;5037252;28;20256;-67
2024/02/23 02:34:36;;;;;;;0.20;0.20;;;;;;;6.53;100.00;94468.75;5036935;28;20208;-67
2024/02/23 02:37:03;;;;;;;0.87;0.50;;;;;;;6.64;100.00;94484.69;5036881;28;20204;-68
2024/02/23 02:39:31;;;;;;;0.50;0.30;;;;;;;6.90;100.00;94496.06;5036728;28;20470;-68
2024/02/23 02:41:57;;;;;;;0.40;0.40;;;;;;;6.72;100.00;94492.38;5037167;28;20578;-67
2024/02/23 02:44:24;;;;;;;0.30;0.30;;;;;;;6.60;100.00;94503.63;5036903;28;20204;-67
2024/02/23 02:46:50;;;;;;;0.47;0.30;;;;;;;6.93;100.00;94503.53;5037572;28;20201;-68
2024/02/23 02:49:17;;;;;;;1.80;0.77;;;;;;;6.85;100.00;94503.72;5037083;28;20671;-68
2024/02/23 02:51:45;;;;;;;0.20;0.20;;;;;;;6.74;100.00;94487.75;5035319;28;20719;-67
2024/02/23 02:54:13;;;;;;;0.20;0.20;;;;;;;7.04;100.00;94483.81;5036676;28;20217;-68
2024/02/23 02:56:45;;;;;;;0.20;0.20;;;;;;;6.74;100.00;94472.84;5037163;28;20671;-67
2024/02/23 02:59:12;;;;;;;0.40;0.40;;;;;;;6.95;100.00;94477.16;5037065;28;20674;-68
2024/02/23 03:01:39;;;;;;;0.40;0.40;;;;;;;6.89;100.00;94494.47;5035902;28;20229;-68
2024/02/23 03:04:05;;;;;;;0.20;0.20;;;;;;;6.92;100.00;94488.03;5036589;28;20216;-67
2024/02/23 03:06:32;;;;;;;0.47;0.40;;;;;;;7.06;100.00;94479.19;5037005;28;20490;-67
2024/02/23 03:08:58;;;;;;;0.40;0.30;;;;;;;6.84;100.00;94470.69;5036803;28;20217;-67
2024/02/23 03:11:25;;;;;;;0.30;0.30;;;;;;;6.99;100.00;94460.06;5035405;28;20344;-67
2024/02/23 03:13:52;;;;;;;0.30;0.30;;;;;;;7.07;100.00;94450.19;5036600;28;20574;-67
2024/02/23 03:16:19;;;;;;;0.30;0.30;;;;;;;6.98;100.00;94459.25;5036206;28;20212;-68
2024/02/23 03:18:46;;;;;;;0.27;0.27;;;;;;;6.45;100.00;94464.50;5036191;28;20226;-67
2024/02/23 03:21:15;;;;;;;0.30;0.30;;;;;;;6.91;100.00;94470.69;5036595;28;20552;-67
2024/02/23 03:23:41;;;;;;;0.30;0.30;;;;;;;6.94;100.00;94465.88;5035667;28;20205;-67
2024/02/23 03:26:08;;;;;;;0.30;0.20;;;;;;;6.82;100.00;94475.31;5036087;28;20201;-67
2024/02/23 03:28:35;;;;;;;0.37;0.37;;;;;;;6.73;100.00;94483.53;5036248;28;20206;-67
2024/02/23 03:31:03;;;;;;;0.30;0.30;;;;;;;6.85;100.00;94467.06;5035685;28;20233;-67
2024/02/23 03:33:29;;;;;;;0.30;0.30;;;;;;;6.95;100.00;94477.16;5035518;28;20503;-68
2024/02/23 03:35:56;;;;;;;0.30;0.30;;;;;;;6.89;100.00;94470.09;5036640;28;20208;-68
2024/02/23 03:38:22;;;;;;;0.30;0.30;;;;;;;6.69;100.00;94474.47;5034534;28;20492;-67
2024/02/23 03:40:49;;;;;;;0.30;0.30;;;;;;;6.85;100.00;94461.03;5035312;28;20514;-68
2024/02/23 03:43:16;;;;;;;0.20;0.20;;;;;;;6.74;100.00;94474.69;5035313;28;20275;-67
2024/02/23 03:45:42;;;;;;;0.30;0.30;;;;;;;6.89;100.00;94473.53;5036066;28;20198;-67
2024/02/23 03:48:11;;;;;;;0.20;0.20;;;;;;;6.91;100.00;94475.94;5035776;28;20209;-67
2024/02/23 03:50:37;;;;;;;0.63;0.30;;;;;;;6.66;100.00;94480.09;5035462;28;20209;-67
2024/02/23 03:53:04;;;;;;;0.50;0.50;;;;;;;6.70;100.00;94484.72;5034678;28;20225;-67
2024/02/23 03:55:30;;;;;;;0.30;0.30;;;;;;;6.79;100.00;94488.00;5035804;28;20201;-67
2024/02/23 03:57:57;;;;;;;0.40;0.40;;;;;;;6.87;100.00;94487.81;5035899;28;20201;-67
2024/02/23 04:00:24;;;;;;;0.40;0.40;;;;;;;6.95;100.00;94482.38;5035698;28;20213;-67
2024/02/23 04:02:51;;;;;;;0.30;0.30;;;;;;;6.75;100.00;94478.91;5034386;28;20217;-67
2024/02/23 04:05:18;;;;;;;5.30;1.27;;;;;;;6.62;100.00;94468.41;5035723;28;20597;-66
2024/02/23 04:07:45;;;;;;;4.43;1.83;;;;;;;6.56;100.00;94474.41;5035377;28;20683;-67
2024/02/23 04:10:15;;;;;;;5.80;1.10;;;;;;;6.82;100.00;94474.50;5035486;28;20208;-67
2024/02/23 04:12:42;;;;;;;6.63;2.20;;;;;;;6.59;100.00;94481.84;5034717;28;20221;-67
2024/02/23 04:15:09;;;;;;;4.50;1.90;;;;;;;6.73;100.00;94480.91;5035024;28;20671;-66
2024/02/23 04:17:36;;;;;;;3.33;1.23;;;;;;;6.69;100.00;94484.91;5034936;28;20197;-67
2024/02/23 04:20:07;;;;;;;14.93;4.63;;;;;;;6.73;100.00;94488.75;5037059;28;20193;-67
2024/02/23 04:22:34;;;;;;;26.67;8.30;;;;;;;6.88;100.00;94497.28;5034486;28;20319;-67
2024/02/23 04:25:01;;;;;;;24.90;6.57;;;;;;;6.73;100.00;94497.44;5035238;28;20296;-67
2024/02/23 04:27:28;;;;;;;28.93;9.73;;;;;;;6.79;100.00;94498.47;5035299;28;20205;-67
2024/02/23 04:29:54;;;;;;;15.17;7.13;;;;;;;6.88;100.00;94507.75;5036161;28;20316;-67
2024/02/23 04:32:21;;;;;;;9.03;4.70;;;;;;;6.98;100.00;94505.56;5034577;28;20216;-66
2024/02/23 04:34:47;;;;;;;4.63;2.70;;;;;;;6.97;100.00;94506.56;5035184;28;20690;-66
2024/02/23 04:37:14;;;;;;;9.57;5.93;;;;;;;6.89;100.00;94493.66;5034908;28;20205;-67
2024/02/23 04:39:44;;;;;;;4.07;2.73;;;;;;;7.19;100.00;94476.59;5035250;28;20607;-66
2024/02/23 04:42:11;;;;;;;1.90;0.97;;;;;;;6.79;100.00;94495.84;5034354;28;20244;-67
2024/02/23 04:44:37;;;;;;;1.17;0.60;;;;;;;6.95;100.00;94487.63;5034822;28;20216;-67
2024/02/23 04:47:04;;;;;;;0.57;0.50;;;;;;;6.91;100.00;94487.22;5034567;28;20212;-67
2024/02/23 04:49:30;;;;;;;0.40;0.40;;;;;;;6.91;100.00;94489.84;5034992;28;20207;-66
2024/02/23 04:51:57;;;;;;;0.67;0.50;;;;;;;6.97;100.00;94485.63;5034208;28;20224;-67
2024/02/23 04:54:23;;;;;;;0.50;0.40;;;;;;;6.97;100.00;94483.00;5034736;28;20213;-67
2024/02/23 04:56:51;;;;;;;2.17;0.50;;;;;;;7.04;100.00;94475.97;5034943;28;20201;-67
2024/02/23 04:59:17;;;;;;;0.40;0.40;;;;;;;7.13;100.00;94474.78;5034678;28;20583;-66
2024/02/23 05:01:44;;;;;;;0.60;0.60;;;;;;;7.19;100.00;94479.22;5034564;28;20220;-66
2024/02/23 05:04:10;;;;;;;0.50;0.50;;;;;;;6.99;100.00;94473.16;5034721;28;20364;-67
2024/02/23 05:06:37;;;;;;;0.60;0.50;;;;;;;7.14;100.00;94463.28;5034959;28;20383;-67
2024/02/23 05:09:05;;;;;;;1.93;0.80;;;;;;;7.09;100.00;94473.56;5034477;28;20205;-66
2024/02/23 05:11:32;;;;;;;0.87;0.63;;;;;;;7.17;100.00;94476.00;5033703;28;20197;-66
2024/02/23 05:14:00;;;;;;;0.40;0.40;;;;;;;7.33;100.00;94482.47;5034705;28;20577;-67
2024/02/23 05:16:25;;;;;;;3.03;1.00;;;;;;;7.17;100.00;94484.66;5035131;28;20205;-67
2024/02/23 05:18:52;;;;;;;3.30;1.50;;;;;;;7.18;100.00;94503.78;5034142;28;20208;-67
2024/02/23 05:21:18;;;;;;;7.70;2.40;;;;;;;6.96;100.00;94499.72;5034793;28;20251;-68
2024/02/23 05:23:46;;;;;;;7.60;2.30;;;;;;;7.19;100.00;94502.78;5034182;28;20658;-67
2024/02/23 05:26:12;;;;;;;1.40;1.30;;;;;;;7.02;100.00;94507.59;5034255;28;20209;-66
2024/02/23 05:28:39;;;;;;;4.83;2.20;;;;;;;7.10;100.00;94490.88;5034281;28;20767;-67
2024/02/23 05:31:07;;;;;;;3.27;1.10;;;;;;;7.24;100.00;94484.69;5035177;28;20189;-67
2024/02/23 05:33:33;;;;;;;2.30;1.37;;;;;;;7.21;100.00;94498.19;5034120;28;20225;-66
2024/02/23 05:36:00;;;;;;;11.87;4.00;;;;;;;7.23;100.00;94496.16;5034476;28;20375;-67
2024/02/23 05:38:26;;;;;;;7.40;2.23;;;;;;;7.16;100.00;94497.97;5038338;28;20345;-70
2024/02/23 05:40:53;;;;;;;6.23;2.37;;;;;;;7.09;100.00;94502.38;5038552;28;20201;-68
2024/02/23 05:43:19;;;;;;;3.40;1.07;;;;;;;7.11;100.00;94518.69;5036891;28;20225;-67
2024/02/23 05:45:46;;;;;;;0.60;0.60;;;;;;;6.92;100.00;94543.00;5038339;28;20585;-68
2024/02/23 05:48:14;;;;;;;0.87;0.50;;;;;;;7.29;100.00;94544.13;5038310;28;20206;-67
2024/02/23 05:50:40;;;;;;;2.00;1.27;;;;;;;7.09;100.00;94558.19;5037365;28;20221;-66
2024/02/23 05:53:07;;;;;;;1.80;0.87;;;;;;;7.05;100.00;94553.53;5037133;28;20488;-68
2024/02/23 05:55:34;;;;;;;7.70;2.97;;;;;;;7.04;100.00;94547.50;5037749;28;20694;-67
2024/02/23 05:58:00;;;;;;;3.57;1.60;;;;;;;7.12;100.00;94531.59;5037946;28;20506;-68
2024/02/23 06:00:27;;;;;;;2.90;1.20;;;;;;;7.21;100.00;94542.72;5037007;28;20203;-67
2024/02/23 06:02:53;;;;;;;5.33;1.57;;;;;;;7.36;100.00;94531.84;5037502;28;20228;-66
2024/02/23 06:05:21;;;;;;;6.50;2.10;;;;;;;7.61;100.00;94527.66;5038037;28;20208;-67
2024/02/23 06:07:47;;;;;;;5.10;1.90;;;;;;;7.47;100.00;94549.63;5038186;28;20204;-66
2024/02/23 06:10:14;;;;;;;4.70;1.90;;;;;;;7.42;100.00;94538.94;5037732;28;20207;-67
2024/02/23 06:12:40;;;;;;;4.93;1.27;;;;;;;7.39;100.00;94547.16;5036922;28;20231;-67
2024/02/23 06:15:08;;;;;;;6.53;1.70;;;;;;;7.47;100.00;94551.41;5037242;28;20213;-67
2024/02/23 06:17:35;;;;;;;3.77;1.50;;;;;;;7.47;100.00;94549.63;5037108;28;20234;-70
2024/02/23 06:20:02;;;;;;;3.57;1.50;;;;;;;7.45;100.00;94535.91;5038639;28;21091;-68
2024/02/23 06:22:31;;;;;;;7.67;2.37;;;;;;;7.64;100.00;94532.50;5037605;28;20232;-67
2024/02/23 06:24:57;;;;;;;5.27;1.73;;;;;;;7.45;100.00;94538.53;5038811;28;20554;-67
2024/02/23 06:27:25;;;;;;;2.60;1.37;;;;;;;7.51;100.00;94542.16;5037805;28;20205;-67
2024/02/23 06:29:51;;;;;;;5.50;1.63;;;;;;;7.48;100.00;94543.34;5038603;28;20227;-67
2024/02/23 06:32:18;;;;;;;2.70;1.37;;;;;;;7.36;100.00;94547.56;5037490;28;20239;-67
2024/02/23 06:34:45;;;;;;;1.50;0.80;;;;;;;7.47;100.00;94539.13;5038326;28;20201;-65
2024/02/23 06:37:12;;;;;;;0.60;0.60;;;;;;;7.40;100.00;94538.31;5037122;28;20205;-64
2024/02/23 06:39:40;;;;;;;0.67;0.50;;;;;;;7.67;100.00;94528.69;5038571;28;20296;-66
2024/02/23 06:42:07;;;;;;;3.17;0.57;;;;;;;7.55;100.00;94528.47;5036039;28;20233;-66
2024/02/23 06:44:33;;;;;;;2.90;0.50;;;;;;;7.45;100.00;94519.38;5037834;28;20223;-64
2024/02/23 06:46:59;;;;;;;1.03;0.60;;;;;;;7.41;100.00;94524.19;5037190;28;20197;-67
2024/02/23 06:49:26;;;;;;;1.17;1.07;;;;;;;7.41;100.00;94526.03;5037196;28;20211;-65
2024/02/23 06:51:52;;;;;;;3.33;1.47;;;;;;;7.26;100.00;94530.63;5036305;28;20228;-65
2024/02/23 06:54:19;;;;;;;2.97;1.60;;;;;;;7.14;100.00;94544.47;5037657;28;20211;-67
2024/02/23 06:56:47;;;;;;;1.73;0.77;;;;;;;7.35;100.00;94537.28;5037311;28;20206;-65
2024/02/23 06:59:13;;;;;;;0.97;0.90;;;;;;;7.31;100.00;94549.97;5037606;28;20205;-65
2024/02/23 07:01:48;;;;;;;0.73;0.73;;;;;;;7.42;100.00;94549.41;5037185;28;20283;-67
2024/02/23 07:04:15;;;;;;;2.50;1.10;;;;;;;7.31;100.00;94563.06;5036064;28;20205;-67
2024/02/23 07:06:42;;;;;;;0.90;0.60;;;;;;;6.99;100.00;94577.88;5038838;28;20201;-66
2024/02/23 07:09:11;;;;;;;0.80;0.80;;;;;;;6.91;100.00;94580.66;5036851;28;20683;-67
2024/02/23 07:11:37;;;;;;;0.80;0.80;;;;;;;7.27;100.00;94585.44;5035932;28;20915;-66
2024/02/23 07:14:06;;;;;;;0.80;0.80;;;;;;;7.28;100.00;94576.56;5036890;28;20198;-66
2024/02/23 07:16:32;;;;;;;1.80;1.10;;;;;;;7.29;100.00;94586.06;5037816;28;21176;-67
2024/02/23 07:18:59;;;;;;;0.87;0.60;;;;;;;7.33;100.00;94576.78;5036523;28;20212;-66
2024/02/23 07:21:25;;;;;;;0.70;0.70;;;;;;;7.38;100.00;94569.16;5036429;28;20213;-67
2024/02/23 07:23:52;;;;;;;1.33;1.23;;;;;;;7.46;100.00;94568.16;5036214;28;20197;-66
2024/02/23 07:26:20;;;;;;;3.50;0.67;;;;;;;7.02;100.00;94567.00;5036875;28;20593;-67
2024/02/23 07:28:46;;;;;;;0.80;0.80;;;;;;;7.22;100.00;94557.41;5036857;28;20622;-68
2024/02/23 07:31:14;;;;;;;0.93;0.90;;;;;;;7.41;100.00;94558.25;5037183;28;20215;-67
2024/02/23 07:33:41;;;;;;;1.70;0.70;;;;;;;7.21;100.00;94558.44;5036087;28;20224;-67
2024/02/23 07:36:08;;;;;;;1.30;0.90;;;;;;;7.12;100.00;94557.78;5037250;28;20201;-66
2024/02/23 07:38:35;;;;;;;1.33;0.60;;;;;;;7.27;100.00;94561.84;5036885;28;20197;-68
2024/02/23 07:41:01;;;;;;;0.70;0.70;;;;;;;7.19;100.00;94569.06;5036997;28;20949;-68
2024/02/23 07:43:29;;;;;;;0.50;0.50;;;;;;;7.56;100.00;94561.53;5035069;28;20233;-67
2024/02/23 07:45:55;;;;;;;1.47;0.80;;;;;;;7.61;100.00;94553.88;5037169;28;20205;-68
2024/02/23 07:48:23;;;;;;;0.93;0.70;;;;;;;7.48;100.00;94553.03;5036765;28;20209;-67
2024/02/23 07:50:50;;;;;;;5.90;0.90;;;;;;;7.54;100.00;94553.03;5036121;28;20659;-66
2024/02/23 07:53:16;;;;;;;0.80;0.50;;;;;;;7.29;100.00;94544.13;5035029;28;20231;-66
2024/02/23 07:55:43;;;;;;;0.73;0.63;;;;;;;7.58;100.00;94538.53;5036690;28;20224;-67
2024/02/23 07:58:09;;;;;;;0.50;0.50;;;;;;;7.44;100.00;94534.28;5035722;28;20205;-66
2024/02/23 08:00:38;;;;;;;0.97;0.50;;;;;;;7.58;100.00;94538.53;5035832;28;20201;-67
2024/02/23 08:03:04;;;;;;;0.63;0.60;;;;;;;7.60;100.00;94540.94;5035941;28;20236;-67
2024/02/23 08:05:32;;;;;;;1.53;0.70;;;;;;;7.56;100.00;94550.22;5035436;28;20424;-68
2024/02/23 08:07:59;;;;;;;1.03;0.70;;;;;;;7.79;100.00;94572.44;5036607;28;20256;-68
2024/02/23 08:10:26;;;;;;;4.30;2.03;;;;;;;7.77;100.00;94584.94;5035419;28;20213;-65
2024/02/23 08:12:52;;;;;;;2.17;0.83;;;;;;;7.56;100.00;94581.66;5035538;28;20217;-68
2024/02/23 08:15:19;;;;;;;1.07;0.70;;;;;;;7.55;100.00;94585.31;5035046;28;20287;-67
2024/02/23 08:17:46;;;;;;;0.40;0.40;;;;;;;7.62;100.00;94576.44;5036855;28;20570;-67
2024/02/23 08:20:12;;;;;;;0.97;0.87;;;;;;;7.94;100.00;94576.50;5035051;28;20216;-67
2024/02/23 08:22:40;;;;;;;1.50;0.70;;;;;;;7.69;100.00;94579.06;5034191;28;20236;-67
2024/02/23 08:25:07;;;;;;;3.10;0.83;;;;;;;7.66;100.00;94576.84;5035316;28;20224;-65
2024/02/23 08:27:34;;;;;;;1.50;0.70;;;;;;;7.26;100.00;94581.19;5035818;28;20201;-69
2024/02/23 08:30:00;;;;;;;0.70;0.70;;;;;;;7.45;100.00;94582.28;5035542;28;20208;-70
2024/02/23 08:32:27;;;;;;;0.60;0.50;;;;;;;7.58;100.00;94585.72;5034538;28;20225;-72
2024/02/23 08:34:59;;;;;;;1.03;0.87;;;;;;;7.00;100.00;94584.72;5036472;28;20655;-69
2024/02/23 08:37:25;;;;;;;0.60;0.60;;;;;;;7.24;100.00;94586.84;5035059;28;20205;-72
2024/02/23 08:39:54;;;;;;;0.50;0.50;;;;;;;7.61;100.00;94584.50;5036249;28;20202;-71
2024/02/23 08:42:20;;;;;;;1.00;0.60;;;;;;;7.57;100.00;94596.41;5034313;28;20232;-71
2024/02/23 08:44:47;;;;;;;0.60;0.60;;;;;;;7.51;100.00;94610.28;5035434;28;20217;-72
2024/02/23 08:47:13;;;;;;;1.10;0.80;;;;;;;7.31;100.00;94610.22;5035898;28;20205;-71
2024/02/23 08:49:40;;;;;;;2.13;0.83;;;;;;;7.43;100.00;94598.19;5036031;28;20313;-68
2024/02/23 08:52:07;;;;;;;2.53;0.90;;;;;;;7.74;100.00;94592.38;5034084;28;20370;-71
2024/02/23 08:54:33;;;;;;;2.03;1.27;;;;;;;7.69;100.00;94582.53;5035146;28;20201;-68
2024/02/23 08:57:01;;;;;;;1.30;0.93;;;;;;;7.99;100.00;94565.38;5035800;28;20741;-72
2024/02/23 08:59:28;;;;;;;2.77;1.00;;;;;;;8.02;100.00;94562.38;5035025;28;20286;-67
2024/02/23 09:01:54;;;;;;;1.73;0.70;;;;;;;7.43;100.00;94582.47;5034742;28;20310;-68
2024/02/23 09:04:21;;;;;;;1.03;0.77;;;;;;;7.82;100.00;94582.53;5035035;28;20201;-67
2024/02/23 09:06:48;;;;;;;2.33;1.00;;;;;;;8.20;100.00;94591.47;5036210;28;20197;-68
2024/02/23 09:09:15;;;;;;;3.90;1.00;;;;;;;8.29;100.00;94598.13;5035582;28;20667;-67
2024/02/23 09:11:42;;;;;;;4.03;1.30;;;;;;;8.09;100.00;94611.19;5037345;28;20303;-66
2024/02/23 09:14:09;;;;;;;2.33;0.90;;;;;;;8.31;100.00;94614.47;5039932;28;20293;-66
2024/02/23 09:16:36;;;;;;;3.30;1.40;;;;;;;8.37;100.00;94605.78;5039414;28;20940;-68
2024/02/23 09:19:02;;;;;;;3.70;1.70;;;;;;;8.06;100.00;94608.97;5039556;28;20204;-67
2024/02/23 09:21:29;;;;;;;8.33;2.50;;;;;;;7.86;100.00;94621.25;5039142;28;20205;-69
2024/02/23 09:23:56;;;;;;;3.30;1.70;;;;;;;7.61;100.00;94624.66;5039288;28;20234;-68
2024/02/23 09:26:22;;;;;;;4.03;2.17;;;;;;;7.76;100.00;94619.22;5037886;28;20205;-68
2024/02/23 09:28:49;;;;;;;3.57;2.10;;;;;;;8.19;100.00;94606.38;5039094;28;20247;-65
2024/02/23 09:31:18;;;;;;;10.10;2.33;;;;;;;8.14;100.00;94600.13;5039840;28;20645;-65
2024/02/23 09:33:45;;;;;;;11.50;2.37;;;;;;;8.02;100.00;94609.59;5037884;28;20259;-66
2024/02/23 09:36:12;;;;;;;7.43;1.73;;;;;;;8.09;100.00;94610.38;5038358;28;20204;-67
2024/02/23 09:38:39;;;;;;;4.60;1.60;;;;;;;7.67;100.00;94612.56;5038119;28;20205;-67
2024/02/23 09:41:06;;;;;;;5.60;2.30;;;;;;;7.81;100.00;94614.19;5039253;28;20201;-65
2024/02/23 09:43:34;;;;;;;7.73;2.33;;;;;;;7.85;100.00;94618.81;5036579;28;20575;-66
2024/02/23 09:46:00;;;;;;;5.13;2.10;;;;;;;7.95;100.00;94617.41;5039139;28;20209;-67
2024/02/23 09:48:29;;;;;;;4.93;2.47;;;;;;;8.12;100.00;94617.84;5038672;28;20213;-66
2024/02/23 09:50:57;;;;;;;4.90;1.50;;;;;;;7.87;100.00;94622.06;5039342;28;20210;-66
2024/02/23 09:53:23;;;;;;;8.10;1.50;;;;;;;7.73;100.00;94622.25;5036707;28;20217;-68
2024/02/23 09:55:52;;;;;;;1.83;0.93;;;;;;;7.41;100.00;94617.72;5039265;28;20197;-65
2024/02/23 09:58:20;;;;;;;1.70;0.90;;;;;;;7.82;100.00;94619.25;5038695;28;20228;-68
2024/02/23 10:00:47;;;;;;;1.93;0.90;;;;;;;8.15;100.00;94609.63;5038489;28;20288;-68
2024/02/23 10:03:13;;;;;;;3.23;1.10;;;;;;;8.14;100.00;94613.25;5038260;28;20245;-66
2024/02/23 10:05:42;;;;;;;1.70;0.73;;;;;;;8.27;100.00;94608.81;5038409;28;20206;-68
2024/02/23 10:08:09;;;;;;;3.17;1.00;;;;;;;8.46;100.00;94609.81;5038666;28;20210;-68
2024/02/23 10:10:35;;;;;;;2.00;0.90;;;;;;;8.07;100.00;94612.38;5038456;28;20200;-66
2024/02/23 10:13:04;;;;;;;1.30;0.80;;;;;;;8.32;100.00;94616.09;5037934;28;20213;-65
2024/02/23 10:15:31;;;;;;;0.50;0.50;;;;;;;7.77;100.00;94611.16;5038033;28;20201;-67
2024/02/23 10:17:57;;;;;;;3.33;0.80;;;;;;;7.99;100.00;94621.28;5038502;28;20205;-68
2024/02/23 10:20:24;;;;;;;2.53;0.97;;;;;;;7.92;100.00;94635.41;5037487;28;20219;-66
2024/02/23 10:22:53;;;;;;;1.33;0.80;;;;;;;7.74;100.00;94636.97;5036207;28;20248;-69
2024/02/23 10:25:20;;;;;;;2.43;0.70;;;;;;;7.77;100.00;94641.81;5037892;28;20201;-68
2024/02/23 10:27:46;;;;;;;2.80;0.60;;;;;;;7.66;100.00;94635.34;5037849;28;20586;-68
2024/02/23 10:30:14;;;;;;;1.20;0.67;;;;;;;7.97;100.00;94639.03;5038318;28;20314;-66
2024/02/23 10:32:42;;;;;;;0.90;0.60;;;;;;;7.96;100.00;94647.09;5037687;28;20222;-69
2024/02/23 10:35:11;;;;;;;1.00;0.60;;;;;;;8.22;100.00;94637.47;5038065;28;20215;-68
2024/02/23 10:37:37;;;;;;;4.73;0.90;;;;;;;7.99;100.00;94639.66;5037352;28;20209;-66
2024/02/23 10:40:10;;;;;;;5.23;1.00;;;;;;;8.19;100.00;94642.31;5038075;28;20209;-67
2024/02/23 10:42:38;;;;;;;2.43;0.70;;;;;;;8.04;100.00;94636.41;5036871;28;20351;-70
2024/02/23 10:45:08;;;;;;;1.90;0.83;;;;;;;8.23;100.00;94635.66;5038295;28;20301;-68
2024/02/23 10:47:36;;;;;;;3.13;1.27;;;;;;;7.96;100.00;94636.59;5037561;28;20204;-67
2024/02/23 10:50:04;;;;;;;2.07;0.83;;;;;;;7.82;100.00;94645.47;5038080;28;20211;-69
2024/02/23 10:52:32;;;;;;;1.30;0.83;;;;;;;8.11;100.00;94632.00;5037080;28;20244;-68
2024/02/23 10:55:04;;;;;;;1.40;0.80;;;;;;;8.48;100.00;94625.16;5038223;28;20211;-67
2024/02/23 10:57:33;;;;;;;2.10;1.03;;;;;;;8.26;100.00;94622.13;5037553;28;20212;-65
2024/02/23 10:59:59;;;;;;;4.13;1.13;;;;;;;8.31;100.00;94619.72;5038069;28;20560;-68
2024/02/23 11:02:29;;;;;;;2.97;0.73;;;;;;;8.03;100.00;94622.50;5037235;28;20229;-69
2024/02/23 11:04:58;;;;;;;1.00;0.60;;;;;;;7.81;100.00;94625.47;5038314;28;20311;-69
2024/02/23 11:07:25;;;;;;;3.57;0.80;;;;;;;8.04;100.00;94618.06;5037449;28;20228;-69
2024/02/23 11:09:53;;;;;;;1.17;0.60;;;;;;;8.26;100.00;94616.88;5037924;28;20208;-68
2024/02/23 11:12:24;;;;;;;1.13;0.60;;;;;;;8.37;100.00;94624.16;5036921;28;20244;-65
2024/02/23 11:14:58;;;;;;;2.87;0.77;;;;;;;8.58;100.00;94625.56;5037708;28;20221;-69
2024/02/23 11:17:27;;;;;;;2.87;0.70;;;;;;;8.39;100.00;94622.13;5037294;28;20216;-67
2024/02/23 11:19:56;;;;;;;0.80;0.63;;;;;;;8.19;100.00;94624.75;5037669;28;20197;-65
2024/02/23 11:22:26;;;;;;;1.03;0.60;;;;;;;8.46;100.00;94628.19;5036678;28;20228;-67
2024/02/23 11:24:54;;;;;;;1.60;0.70;;;;;;;8.21;100.00;94619.28;5037303;28;20241;-66
2024/02/23 11:27:20;;;;;;;1.53;0.70;;;;;;;8.22;100.00;94616.50;5037232;28;20220;-69
2024/02/23 11:29:48;;;;;;;3.50;0.77;;;;;;;8.46;100.00;94620.31;5036812;28;20208;-68
2024/02/23 11:32:17;;;;;;;1.60;0.93;;;;;;;8.12;100.00;94620.47;5037066;28;20231;-67